sensor_id;sensor_type;location;lat;lon;timestamp;P1;durP1;ratioP1;P2;durP2;ratioP2
34102;SDS011;20381;54.498;18.206;2023-09-19T00:00:57;6.40;;;5.70;;
34102;SDS011;20381;54.498;18.206;2023-09-19T00:03:40;7.40;;;6.10;;
34102;SDS011;20381;54.498;18.206;2023-09-19T00:06:10;10.30;;;6.60;;
34102;SDS011;20381;54.498;18.206;2023-09-19T00:08:41;7.00;;;5.20;;
34102;SDS011;20381;54.498;18.206;2023-09-19T00:11:13;8.40;;;6.80;;
34102;SDS011;20381;54.498;18.206;2023-09-19T00:13:42;6.60;;;5.60;;
34102;SDS011;20381;54.498;18.206;2023-09-19T00:16:11;8.10;;;6.70;;
34102;SDS011;20381;54.498;18.206;2023-09-19T00:18:40;7.40;;;6.00;;
34102;SDS011;20381;54.498;18.206;2023-09-19T00:21:09;6.70;;;5.90;;
34102;SDS011;20381;54.498;18.206;2023-09-19T00:23:38;7.60;;;6.10;;
34102;SDS011;20381;54.498;18.206;2023-09-19T00:26:09;6.60;;;5.70;;
34102;SDS011;20381;54.498;18.206;2023-09-19T00:28:37;9.50;;;6.30;;
34102;SDS011;20381;54.498;18.206;2023-09-19T00:31:07;6.40;;;5.20;;
34102;SDS011;20381;54.498;18.206;2023-09-19T00:33:37;8.90;;;6.40;;
34102;SDS011;20381;54.498;18.206;2023-09-19T00:36:06;7.30;;;6.20;;
34102;SDS011;20381;54.498;18.206;2023-09-19T00:38:35;8.40;;;6.10;;
34102;SDS011;20381;54.498;18.206;2023-09-19T00:41:03;7.80;;;6.70;;
34102;SDS011;20381;54.498;18.206;2023-09-19T00:43:32;6.40;;;5.80;;
34102;SDS011;20381;54.498;18.206;2023-09-19T00:46:03;8.20;;;5.40;;
34102;SDS011;20381;54.498;18.206;2023-09-19T00:48:40;7.70;;;6.70;;
34102;SDS011;20381;54.498;18.206;2023-09-19T00:51:12;7.60;;;6.50;;
34102;SDS011;20381;54.498;18.206;2023-09-19T00:53:42;8.20;;;7.30;;
34102;SDS011;20381;54.498;18.206;2023-09-19T00:56:14;9.10;;;6.10;;
34102;SDS011;20381;54.498;18.206;2023-09-19T00:58:46;5.40;;;4.80;;
34102;SDS011;20381;54.498;18.206;2023-09-19T01:01:16;7.40;;;5.20;;
34102;SDS011;20381;54.498;18.206;2023-09-19T01:03:45;6.90;;;5.10;;
34102;SDS011;20381;54.498;18.206;2023-09-19T01:06:14;10.30;;;6.60;;
34102;SDS011;20381;54.498;18.206;2023-09-19T01:08:43;7.10;;;5.80;;
34102;SDS011;20381;54.498;18.206;2023-09-19T01:11:13;8.70;;;6.90;;
34102;SDS011;20381;54.498;18.206;2023-09-19T01:16:32;7.20;;;5.90;;
34102;SDS011;20381;54.498;18.206;2023-09-19T01:21:55;6.00;;;5.10;;
34102;SDS011;20381;54.498;18.206;2023-09-19T01:30:21;6.10;;;5.20;;
34102;SDS011;20381;54.498;18.206;2023-09-19T01:32:53;8.30;;;5.70;;
34102;SDS011;20381;54.498;18.206;2023-09-19T01:35:22;7.40;;;5.70;;
34102;SDS011;20381;54.498;18.206;2023-09-19T01:37:51;6.50;;;4.70;;
34102;SDS011;20381;54.498;18.206;2023-09-19T01:40:21;5.80;;;4.40;;
34102;SDS011;20381;54.498;18.206;2023-09-19T01:45:51;5.60;;;3.80;;
34102;SDS011;20381;54.498;18.206;2023-09-19T01:48:34;4.50;;;4.00;;
34102;SDS011;20381;54.498;18.206;2023-09-19T01:51:07;5.10;;;4.00;;
34102;SDS011;20381;54.498;18.206;2023-09-19T01:56:50;4.70;;;3.40;;
34102;SDS011;20381;54.498;18.206;2023-09-19T01:59:28;5.10;;;3.30;;
34102;SDS011;20381;54.498;18.206;2023-09-19T02:02:04;4.00;;;3.10;;
34102;SDS011;20381;54.498;18.206;2023-09-19T02:04:41;3.80;;;3.40;;
34102;SDS011;20381;54.498;18.206;2023-09-19T02:07:10;4.40;;;3.30;;
34102;SDS011;20381;54.498;18.206;2023-09-19T02:09:38;3.70;;;3.10;;
34102;SDS011;20381;54.498;18.206;2023-09-19T02:12:07;3.80;;;2.70;;
34102;SDS011;20381;54.498;18.206;2023-09-19T02:14:37;3.10;;;2.50;;
34102;SDS011;20381;54.498;18.206;2023-09-19T02:17:06;4.90;;;2.30;;
34102;SDS011;20381;54.498;18.206;2023-09-19T02:19:35;3.40;;;2.30;;
34102;SDS011;20381;54.498;18.206;2023-09-19T02:22:05;3.30;;;1.90;;
34102;SDS011;20381;54.498;18.206;2023-09-19T02:24:38;2.80;;;1.80;;
34102;SDS011;20381;54.498;18.206;2023-09-19T02:27:07;4.30;;;2.20;;
34102;SDS011;20381;54.498;18.206;2023-09-19T02:29:36;2.90;;;1.60;;
34102;SDS011;20381;54.498;18.206;2023-09-19T02:32:04;4.30;;;2.20;;
34102;SDS011;20381;54.498;18.206;2023-09-19T02:34:34;3.00;;;1.60;;
34102;SDS011;20381;54.498;18.206;2023-09-19T02:37:06;3.70;;;1.50;;
34102;SDS011;20381;54.498;18.206;2023-09-19T02:39:36;2.00;;;1.40;;
34102;SDS011;20381;54.498;18.206;2023-09-19T02:42:05;1.70;;;1.00;;
34102;SDS011;20381;54.498;18.206;2023-09-19T02:44:34;1.20;;;0.90;;
34102;SDS011;20381;54.498;18.206;2023-09-19T02:47:03;2.40;;;1.20;;
34102;SDS011;20381;54.498;18.206;2023-09-19T02:49:32;1.80;;;1.10;;
34102;SDS011;20381;54.498;18.206;2023-09-19T02:52:01;2.20;;;1.10;;
34102;SDS011;20381;54.498;18.206;2023-09-19T02:54:30;1.40;;;0.90;;
34102;SDS011;20381;54.498;18.206;2023-09-19T02:56:59;3.50;;;1.10;;
34102;SDS011;20381;54.498;18.206;2023-09-19T02:59:27;1.90;;;0.80;;
34102;SDS011;20381;54.498;18.206;2023-09-19T03:01:57;2.40;;;1.40;;
34102;SDS011;20381;54.498;18.206;2023-09-19T03:04:28;2.50;;;1.60;;
34102;SDS011;20381;54.498;18.206;2023-09-19T03:06:57;1.10;;;0.80;;
34102;SDS011;20381;54.498;18.206;2023-09-19T03:09:28;2.20;;;1.40;;
34102;SDS011;20381;54.498;18.206;2023-09-19T03:11:57;1.70;;;1.20;;
34102;SDS011;20381;54.498;18.206;2023-09-19T03:14:26;2.50;;;1.30;;
34102;SDS011;20381;54.498;18.206;2023-09-19T03:16:58;2.10;;;1.10;;
34102;SDS011;20381;54.498;18.206;2023-09-19T03:19:28;1.20;;;1.00;;
34102;SDS011;20381;54.498;18.206;2023-09-19T03:21:56;1.60;;;1.20;;
34102;SDS011;20381;54.498;18.206;2023-09-19T03:24:29;1.40;;;1.00;;
34102;SDS011;20381;54.498;18.206;2023-09-19T03:27:03;1.50;;;1.00;;
34102;SDS011;20381;54.498;18.206;2023-09-19T03:29:32;3.60;;;1.10;;
34102;SDS011;20381;54.498;18.206;2023-09-19T03:32:03;4.60;;;1.50;;
34102;SDS011;20381;54.498;18.206;2023-09-19T03:34:31;2.20;;;1.10;;
34102;SDS011;20381;54.498;18.206;2023-09-19T03:37:00;1.90;;;0.90;;
34102;SDS011;20381;54.498;18.206;2023-09-19T03:39:28;0.90;;;0.70;;
34102;SDS011;20381;54.498;18.206;2023-09-19T03:41:57;3.90;;;1.00;;
34102;SDS011;20381;54.498;18.206;2023-09-19T03:44:25;1.80;;;0.90;;
34102;SDS011;20381;54.498;18.206;2023-09-19T03:46:54;2.40;;;0.90;;
34102;SDS011;20381;54.498;18.206;2023-09-19T03:49:24;3.00;;;1.20;;
34102;SDS011;20381;54.498;18.206;2023-09-19T03:51:53;1.40;;;1.30;;
34102;SDS011;20381;54.498;18.206;2023-09-19T03:54:21;1.50;;;0.90;;
34102;SDS011;20381;54.498;18.206;2023-09-19T03:56:50;1.70;;;1.00;;
34102;SDS011;20381;54.498;18.206;2023-09-19T03:59:19;2.90;;;1.80;;
34102;SDS011;20381;54.498;18.206;2023-09-19T04:01:47;1.10;;;0.90;;
34102;SDS011;20381;54.498;18.206;2023-09-19T04:04:16;3.40;;;1.80;;
34102;SDS011;20381;54.498;18.206;2023-09-19T04:06:47;1.50;;;0.90;;
34102;SDS011;20381;54.498;18.206;2023-09-19T04:09:15;1.00;;;0.90;;
34102;SDS011;20381;54.498;18.206;2023-09-19T04:11:44;1.50;;;0.80;;
34102;SDS011;20381;54.498;18.206;2023-09-19T04:14:13;1.50;;;0.80;;
34102;SDS011;20381;54.498;18.206;2023-09-19T04:16:41;3.30;;;1.00;;
34102;SDS011;20381;54.498;18.206;2023-09-19T04:19:10;2.40;;;1.20;;
34102;SDS011;20381;54.498;18.206;2023-09-19T04:21:39;3.30;;;1.30;;
34102;SDS011;20381;54.498;18.206;2023-09-19T04:24:07;2.00;;;1.50;;
34102;SDS011;20381;54.498;18.206;2023-09-19T04:26:36;2.20;;;1.00;;
34102;SDS011;20381;54.498;18.206;2023-09-19T04:29:05;3.10;;;1.30;;
34102;SDS011;20381;54.498;18.206;2023-09-19T04:31:34;2.20;;;1.20;;
34102;SDS011;20381;54.498;18.206;2023-09-19T04:34:03;6.70;;;1.10;;
34102;SDS011;20381;54.498;18.206;2023-09-19T04:36:32;1.40;;;1.10;;
34102;SDS011;20381;54.498;18.206;2023-09-19T04:39:03;3.90;;;1.10;;
34102;SDS011;20381;54.498;18.206;2023-09-19T04:41:35;2.40;;;0.90;;
34102;SDS011;20381;54.498;18.206;2023-09-19T04:44:07;2.10;;;0.80;;
34102;SDS011;20381;54.498;18.206;2023-09-19T04:46:36;3.20;;;1.00;;
34102;SDS011;20381;54.498;18.206;2023-09-19T04:49:04;3.90;;;1.20;;
34102;SDS011;20381;54.498;18.206;2023-09-19T04:51:33;2.60;;;0.80;;
34102;SDS011;20381;54.498;18.206;2023-09-19T04:54:04;2.30;;;1.20;;
34102;SDS011;20381;54.498;18.206;2023-09-19T04:56:33;1.50;;;0.90;;
34102;SDS011;20381;54.498;18.206;2023-09-19T04:59:02;1.10;;;0.60;;
34102;SDS011;20381;54.498;18.206;2023-09-19T05:01:31;1.40;;;0.80;;
34102;SDS011;20381;54.498;18.206;2023-09-19T05:04:00;4.30;;;1.60;;
34102;SDS011;20381;54.498;18.206;2023-09-19T05:06:39;2.50;;;1.00;;
34102;SDS011;20381;54.498;18.206;2023-09-19T05:09:13;4.10;;;0.90;;
34102;SDS011;20381;54.498;18.206;2023-09-19T05:11:44;4.60;;;1.20;;
34102;SDS011;20381;54.498;18.206;2023-09-19T05:14:15;1.20;;;0.80;;
34102;SDS011;20381;54.498;18.206;2023-09-19T05:16:43;3.90;;;1.70;;
34102;SDS011;20381;54.498;18.206;2023-09-19T05:19:13;3.30;;;1.20;;
34102;SDS011;20381;54.498;18.206;2023-09-19T05:21:41;2.90;;;1.40;;
34102;SDS011;20381;54.498;18.206;2023-09-19T05:24:09;1.50;;;0.90;;
34102;SDS011;20381;54.498;18.206;2023-09-19T05:26:39;1.60;;;0.90;;
34102;SDS011;20381;54.498;18.206;2023-09-19T05:29:08;26.30;;;2.80;;
34102;SDS011;20381;54.498;18.206;2023-09-19T05:31:39;1.30;;;0.80;;
34102;SDS011;20381;54.498;18.206;2023-09-19T05:34:09;1.70;;;0.90;;
34102;SDS011;20381;54.498;18.206;2023-09-19T05:36:37;2.80;;;1.10;;
34102;SDS011;20381;54.498;18.206;2023-09-19T05:39:08;1.70;;;1.30;;
34102;SDS011;20381;54.498;18.206;2023-09-19T05:41:37;1.70;;;1.10;;
34102;SDS011;20381;54.498;18.206;2023-09-19T05:44:08;1.90;;;1.20;;
34102;SDS011;20381;54.498;18.206;2023-09-19T05:46:36;3.20;;;1.60;;
34102;SDS011;20381;54.498;18.206;2023-09-19T05:49:05;2.30;;;1.50;;
34102;SDS011;20381;54.498;18.206;2023-09-19T05:51:34;2.10;;;1.30;;
34102;SDS011;20381;54.498;18.206;2023-09-19T05:54:03;2.10;;;1.20;;
34102;SDS011;20381;54.498;18.206;2023-09-19T05:56:33;1.70;;;1.30;;
34102;SDS011;20381;54.498;18.206;2023-09-19T05:59:05;2.40;;;1.70;;
34102;SDS011;20381;54.498;18.206;2023-09-19T06:01:33;1.80;;;1.30;;
34102;SDS011;20381;54.498;18.206;2023-09-19T06:04:03;1.90;;;1.40;;
34102;SDS011;20381;54.498;18.206;2023-09-19T06:06:33;2.70;;;1.50;;
34102;SDS011;20381;54.498;18.206;2023-09-19T06:09:06;2.40;;;1.50;;
34102;SDS011;20381;54.498;18.206;2023-09-19T06:11:38;2.40;;;1.80;;
34102;SDS011;20381;54.498;18.206;2023-09-19T06:14:07;1.90;;;1.40;;
34102;SDS011;20381;54.498;18.206;2023-09-19T06:16:36;1.80;;;1.20;;
34102;SDS011;20381;54.498;18.206;2023-09-19T06:19:06;1.90;;;1.10;;
34102;SDS011;20381;54.498;18.206;2023-09-19T06:21:37;1.70;;;1.30;;
34102;SDS011;20381;54.498;18.206;2023-09-19T06:24:06;2.00;;;1.30;;
34102;SDS011;20381;54.498;18.206;2023-09-19T06:26:35;2.80;;;1.60;;
34102;SDS011;20381;54.498;18.206;2023-09-19T06:29:03;1.90;;;1.50;;
34102;SDS011;20381;54.498;18.206;2023-09-19T06:31:35;3.20;;;2.40;;
34102;SDS011;20381;54.498;18.206;2023-09-19T06:34:04;1.30;;;0.80;;
34102;SDS011;20381;54.498;18.206;2023-09-19T06:36:32;1.70;;;1.20;;
34102;SDS011;20381;54.498;18.206;2023-09-19T06:39:01;2.30;;;1.50;;
34102;SDS011;20381;54.498;18.206;2023-09-19T06:41:32;1.80;;;1.20;;
34102;SDS011;20381;54.498;18.206;2023-09-19T06:44:01;2.50;;;1.30;;
34102;SDS011;20381;54.498;18.206;2023-09-19T06:46:29;1.60;;;1.20;;
34102;SDS011;20381;54.498;18.206;2023-09-19T06:49:01;1.40;;;1.10;;
34102;SDS011;20381;54.498;18.206;2023-09-19T06:51:34;2.00;;;1.10;;
34102;SDS011;20381;54.498;18.206;2023-09-19T06:54:02;2.00;;;1.10;;
34102;SDS011;20381;54.498;18.206;2023-09-19T06:56:33;1.20;;;0.90;;
34102;SDS011;20381;54.498;18.206;2023-09-19T06:59:02;1.90;;;1.30;;
34102;SDS011;20381;54.498;18.206;2023-09-19T07:01:34;2.00;;;1.20;;
34102;SDS011;20381;54.498;18.206;2023-09-19T07:04:04;2.90;;;1.00;;
34102;SDS011;20381;54.498;18.206;2023-09-19T07:06:33;3.50;;;1.10;;
34102;SDS011;20381;54.498;18.206;2023-09-19T07:09:01;1.90;;;1.00;;
34102;SDS011;20381;54.498;18.206;2023-09-19T07:11:31;1.30;;;1.20;;
34102;SDS011;20381;54.498;18.206;2023-09-19T07:14:00;1.40;;;1.00;;
34102;SDS011;20381;54.498;18.206;2023-09-19T07:16:32;1.80;;;1.10;;
34102;SDS011;20381;54.498;18.206;2023-09-19T07:19:00;2.60;;;0.80;;
34102;SDS011;20381;54.498;18.206;2023-09-19T07:21:30;1.10;;;0.70;;
34102;SDS011;20381;54.498;18.206;2023-09-19T07:24:00;2.10;;;1.10;;
34102;SDS011;20381;54.498;18.206;2023-09-19T07:26:31;1.40;;;1.10;;
34102;SDS011;20381;54.498;18.206;2023-09-19T07:28:59;2.70;;;0.90;;
34102;SDS011;20381;54.498;18.206;2023-09-19T07:31:31;2.60;;;1.20;;
34102;SDS011;20381;54.498;18.206;2023-09-19T07:34:00;1.90;;;0.90;;
34102;SDS011;20381;54.498;18.206;2023-09-19T07:36:29;1.40;;;0.90;;
34102;SDS011;20381;54.498;18.206;2023-09-19T07:38:58;1.90;;;0.80;;
34102;SDS011;20381;54.498;18.206;2023-09-19T07:41:48;1.30;;;0.70;;
34102;SDS011;20381;54.498;18.206;2023-09-19T07:44:17;1.10;;;0.70;;
34102;SDS011;20381;54.498;18.206;2023-09-19T07:46:47;1.20;;;0.90;;
34102;SDS011;20381;54.498;18.206;2023-09-19T07:49:19;1.50;;;0.80;;
34102;SDS011;20381;54.498;18.206;2023-09-19T07:51:48;3.40;;;1.20;;
34102;SDS011;20381;54.498;18.206;2023-09-19T07:54:16;2.30;;;0.80;;
34102;SDS011;20381;54.498;18.206;2023-09-19T07:56:45;2.00;;;0.60;;
34102;SDS011;20381;54.498;18.206;2023-09-19T07:59:14;1.90;;;0.80;;
34102;SDS011;20381;54.498;18.206;2023-09-19T08:01:42;1.40;;;1.00;;
34102;SDS011;20381;54.498;18.206;2023-09-19T08:04:12;1.00;;;0.60;;
34102;SDS011;20381;54.498;18.206;2023-09-19T08:06:41;0.80;;;0.60;;
34102;SDS011;20381;54.498;18.206;2023-09-19T08:09:12;1.60;;;0.70;;
34102;SDS011;20381;54.498;18.206;2023-09-19T08:11:47;0.80;;;0.60;;
34102;SDS011;20381;54.498;18.206;2023-09-19T08:14:18;1.70;;;0.80;;
34102;SDS011;20381;54.498;18.206;2023-09-19T08:16:47;3.30;;;1.00;;
34102;SDS011;20381;54.498;18.206;2023-09-19T08:19:15;0.90;;;0.50;;
34102;SDS011;20381;54.498;18.206;2023-09-19T08:21:44;2.00;;;0.70;;
34102;SDS011;20381;54.498;18.206;2023-09-19T08:24:15;2.30;;;0.60;;
34102;SDS011;20381;54.498;18.206;2023-09-19T08:26:49;0.70;;;0.40;;
34102;SDS011;20381;54.498;18.206;2023-09-19T08:29:19;1.00;;;0.70;;
34102;SDS011;20381;54.498;18.206;2023-09-19T08:31:49;1.00;;;0.80;;
34102;SDS011;20381;54.498;18.206;2023-09-19T08:34:19;1.20;;;0.70;;
34102;SDS011;20381;54.498;18.206;2023-09-19T08:36:50;1.80;;;0.50;;
34102;SDS011;20381;54.498;18.206;2023-09-19T08:39:20;1.90;;;0.40;;
34102;SDS011;20381;54.498;18.206;2023-09-19T08:41:49;1.10;;;0.40;;
34102;SDS011;20381;54.498;18.206;2023-09-19T08:44:25;3.20;;;0.50;;
34102;SDS011;20381;54.498;18.206;2023-09-19T08:46:54;0.80;;;0.50;;
34102;SDS011;20381;54.498;18.206;2023-09-19T08:49:36;1.60;;;0.40;;
34102;SDS011;20381;54.498;18.206;2023-09-19T08:52:39;1.60;;;0.50;;
34102;SDS011;20381;54.498;18.206;2023-09-19T08:55:11;1.50;;;0.60;;
34102;SDS011;20381;54.498;18.206;2023-09-19T08:57:51;2.60;;;1.40;;
34102;SDS011;20381;54.498;18.206;2023-09-19T09:00:27;0.70;;;0.50;;
34102;SDS011;20381;54.498;18.206;2023-09-19T09:02:58;1.00;;;0.60;;
34102;SDS011;20381;54.498;18.206;2023-09-19T09:05:30;0.60;;;0.30;;
34102;SDS011;20381;54.498;18.206;2023-09-19T09:08:01;2.50;;;0.60;;
34102;SDS011;20381;54.498;18.206;2023-09-19T09:10:30;0.60;;;0.40;;
34102;SDS011;20381;54.498;18.206;2023-09-19T09:12:59;1.40;;;0.30;;
34102;SDS011;20381;54.498;18.206;2023-09-19T09:15:28;2.10;;;0.50;;
34102;SDS011;20381;54.498;18.206;2023-09-19T09:18:00;0.50;;;0.40;;
34102;SDS011;20381;54.498;18.206;2023-09-19T09:20:28;0.80;;;0.40;;
34102;SDS011;20381;54.498;18.206;2023-09-19T09:22:57;0.50;;;0.30;;
34102;SDS011;20381;54.498;18.206;2023-09-19T09:28:24;0.40;;;0.30;;
34102;SDS011;20381;54.498;18.206;2023-09-19T09:30:57;0.60;;;0.50;;
34102;SDS011;20381;54.498;18.206;2023-09-19T09:33:26;1.70;;;0.40;;
34102;SDS011;20381;54.498;18.206;2023-09-19T09:36:00;4.50;;;0.80;;
34102;SDS011;20381;54.498;18.206;2023-09-19T09:38:44;1.60;;;0.30;;
34102;SDS011;20381;54.498;18.206;2023-09-19T09:41:20;1.10;;;0.80;;
34102;SDS011;20381;54.498;18.206;2023-09-19T09:44:17;0.80;;;0.40;;
34102;SDS011;20381;54.498;18.206;2023-09-19T09:46:48;1.10;;;0.30;;
34102;SDS011;20381;54.498;18.206;2023-09-19T09:49:27;1.80;;;0.40;;
34102;SDS011;20381;54.498;18.206;2023-09-19T09:52:03;0.80;;;0.50;;
34102;SDS011;20381;54.498;18.206;2023-09-19T09:54:39;0.80;;;0.40;;
34102;SDS011;20381;54.498;18.206;2023-09-19T09:57:36;0.40;;;0.20;;
34102;SDS011;20381;54.498;18.206;2023-09-19T10:00:09;2.00;;;0.50;;
34102;SDS011;20381;54.498;18.206;2023-09-19T10:02:42;1.40;;;0.80;;
34102;SDS011;20381;54.498;18.206;2023-09-19T10:05:16;1.20;;;0.50;;
34102;SDS011;20381;54.498;18.206;2023-09-19T10:07:57;0.90;;;0.60;;
34102;SDS011;20381;54.498;18.206;2023-09-19T10:10:41;1.60;;;0.60;;
34102;SDS011;20381;54.498;18.206;2023-09-19T10:13:28;0.70;;;0.40;;
34102;SDS011;20381;54.498;18.206;2023-09-19T10:15:59;2.00;;;0.40;;
34102;SDS011;20381;54.498;18.206;2023-09-19T10:21:08;1.70;;;0.50;;
34102;SDS011;20381;54.498;18.206;2023-09-19T10:23:39;4.70;;;0.70;;
34102;SDS011;20381;54.498;18.206;2023-09-19T10:26:11;2.00;;;0.50;;
34102;SDS011;20381;54.498;18.206;2023-09-19T10:28:46;1.40;;;0.60;;
34102;SDS011;20381;54.498;18.206;2023-09-19T10:31:19;0.70;;;0.50;;
34102;SDS011;20381;54.498;18.206;2023-09-19T10:33:52;1.00;;;0.50;;
34102;SDS011;20381;54.498;18.206;2023-09-19T10:36:24;4.20;;;0.70;;
34102;SDS011;20381;54.498;18.206;2023-09-19T10:38:54;1.30;;;0.70;;
34102;SDS011;20381;54.498;18.206;2023-09-19T10:41:27;1.40;;;0.60;;
34102;SDS011;20381;54.498;18.206;2023-09-19T10:43:57;0.70;;;0.30;;
34102;SDS011;20381;54.498;18.206;2023-09-19T10:46:28;1.10;;;0.50;;
34102;SDS011;20381;54.498;18.206;2023-09-19T10:49:00;3.40;;;0.70;;
34102;SDS011;20381;54.498;18.206;2023-09-19T10:51:38;2.30;;;0.80;;
34102;SDS011;20381;54.498;18.206;2023-09-19T10:54:11;3.00;;;0.90;;
34102;SDS011;20381;54.498;18.206;2023-09-19T10:56:46;0.90;;;0.30;;
34102;SDS011;20381;54.498;18.206;2023-09-19T10:59:19;0.70;;;0.30;;
34102;SDS011;20381;54.498;18.206;2023-09-19T11:01:50;1.90;;;0.40;;
34102;SDS011;20381;54.498;18.206;2023-09-19T11:04:26;1.50;;;0.50;;
34102;SDS011;20381;54.498;18.206;2023-09-19T11:07:04;1.80;;;0.50;;
34102;SDS011;20381;54.498;18.206;2023-09-19T11:09:45;0.90;;;0.50;;
34102;SDS011;20381;54.498;18.206;2023-09-19T11:14:59;1.10;;;0.50;;
34102;SDS011;20381;54.498;18.206;2023-09-19T11:17:31;5.40;;;0.30;;
34102;SDS011;20381;54.498;18.206;2023-09-19T11:28:45;1.20;;;0.50;;
34102;SDS011;20381;54.498;18.206;2023-09-19T11:30:51;1.40;;;0.70;;
34102;SDS011;20381;54.498;18.206;2023-09-19T11:33:24;4.90;;;0.60;;
34102;SDS011;20381;54.498;18.206;2023-09-19T11:36:15;0.70;;;0.40;;
34102;SDS011;20381;54.498;18.206;2023-09-19T11:43:49;2.80;;;0.70;;
34102;SDS011;20381;54.498;18.206;2023-09-19T11:46:23;0.80;;;0.30;;
34102;SDS011;20381;54.498;18.206;2023-09-19T11:48:52;1.20;;;0.60;;
34102;SDS011;20381;54.498;18.206;2023-09-19T11:51:22;4.50;;;0.60;;
34102;SDS011;20381;54.498;18.206;2023-09-19T11:53:56;0.80;;;0.50;;
34102;SDS011;20381;54.498;18.206;2023-09-19T11:56:28;0.70;;;0.40;;
34102;SDS011;20381;54.498;18.206;2023-09-19T11:59:00;1.60;;;0.60;;
34102;SDS011;20381;54.498;18.206;2023-09-19T12:04:02;0.50;;;0.30;;
34102;SDS011;20381;54.498;18.206;2023-09-19T12:06:35;1.70;;;0.50;;
34102;SDS011;20381;54.498;18.206;2023-09-19T12:09:07;0.60;;;0.50;;
34102;SDS011;20381;54.498;18.206;2023-09-19T12:11:45;2.60;;;0.60;;
34102;SDS011;20381;54.498;18.206;2023-09-19T12:14:21;3.70;;;0.40;;
34102;SDS011;20381;54.498;18.206;2023-09-19T12:16:57;0.30;;;0.20;;
34102;SDS011;20381;54.498;18.206;2023-09-19T12:19:29;0.40;;;0.30;;
34102;SDS011;20381;54.498;18.206;2023-09-19T12:21:58;0.70;;;0.30;;
34102;SDS011;20381;54.498;18.206;2023-09-19T12:24:33;1.60;;;0.30;;
34102;SDS011;20381;54.498;18.206;2023-09-19T12:27:05;2.40;;;0.40;;
34102;SDS011;20381;54.498;18.206;2023-09-19T12:29:46;2.50;;;0.50;;
34102;SDS011;20381;54.498;18.206;2023-09-19T12:32:36;1.30;;;0.30;;
34102;SDS011;20381;54.498;18.206;2023-09-19T12:35:08;1.60;;;0.50;;
34102;SDS011;20381;54.498;18.206;2023-09-19T12:37:45;1.10;;;0.60;;
34102;SDS011;20381;54.498;18.206;2023-09-19T12:40:16;1.40;;;0.70;;
34102;SDS011;20381;54.498;18.206;2023-09-19T12:42:50;2.10;;;0.60;;
34102;SDS011;20381;54.498;18.206;2023-09-19T12:45:21;4.10;;;1.00;;
34102;SDS011;20381;54.498;18.206;2023-09-19T12:53:40;2.10;;;0.50;;
34102;SDS011;20381;54.498;18.206;2023-09-19T12:56:17;0.70;;;0.30;;
34102;SDS011;20381;54.498;18.206;2023-09-19T12:58:50;1.20;;;0.40;;
34102;SDS011;20381;54.498;18.206;2023-09-19T13:01:31;2.70;;;0.40;;
34102;SDS011;20381;54.498;18.206;2023-09-19T13:04:16;7.90;;;0.40;;
34102;SDS011;20381;54.498;18.206;2023-09-19T13:06:55;1.10;;;0.50;;
34102;SDS011;20381;54.498;18.206;2023-09-19T13:09:29;1.50;;;0.50;;
34102;SDS011;20381;54.498;18.206;2023-09-19T13:12:04;0.80;;;0.30;;
34102;SDS011;20381;54.498;18.206;2023-09-19T13:15:12;3.50;;;0.60;;
34102;SDS011;20381;54.498;18.206;2023-09-19T13:17:48;1.40;;;0.60;;
34102;SDS011;20381;54.498;18.206;2023-09-19T13:20:24;2.20;;;0.50;;
34102;SDS011;20381;54.498;18.206;2023-09-19T13:22:56;0.40;;;0.30;;
34102;SDS011;20381;54.498;18.206;2023-09-19T13:25:34;2.60;;;0.60;;
34102;SDS011;20381;54.498;18.206;2023-09-19T13:28:04;1.70;;;0.30;;
34102;SDS011;20381;54.498;18.206;2023-09-19T13:30:33;1.10;;;0.50;;
34102;SDS011;20381;54.498;18.206;2023-09-19T13:35:40;0.50;;;0.50;;
34102;SDS011;20381;54.498;18.206;2023-09-19T13:38:09;2.40;;;1.00;;
34102;SDS011;20381;54.498;18.206;2023-09-19T13:40:40;0.70;;;0.50;;
34102;SDS011;20381;54.498;18.206;2023-09-19T13:43:12;2.30;;;0.50;;
34102;SDS011;20381;54.498;18.206;2023-09-19T13:45:41;1.10;;;0.60;;
34102;SDS011;20381;54.498;18.206;2023-09-19T13:48:12;1.30;;;0.80;;
34102;SDS011;20381;54.498;18.206;2023-09-19T13:50:41;1.60;;;0.70;;
34102;SDS011;20381;54.498;18.206;2023-09-19T13:53:13;1.20;;;0.50;;
34102;SDS011;20381;54.498;18.206;2023-09-19T13:55:41;2.50;;;0.50;;
34102;SDS011;20381;54.498;18.206;2023-09-19T13:58:10;1.30;;;0.50;;
34102;SDS011;20381;54.498;18.206;2023-09-19T14:00:40;1.40;;;0.60;;
34102;SDS011;20381;54.498;18.206;2023-09-19T14:03:08;3.30;;;1.00;;
34102;SDS011;20381;54.498;18.206;2023-09-19T14:05:40;2.90;;;0.70;;
34102;SDS011;20381;54.498;18.206;2023-09-19T14:08:10;1.60;;;0.70;;
34102;SDS011;20381;54.498;18.206;2023-09-19T14:10:41;3.90;;;0.70;;
34102;SDS011;20381;54.498;18.206;2023-09-19T14:13:10;1.50;;;0.70;;
34102;SDS011;20381;54.498;18.206;2023-09-19T14:15:41;1.50;;;0.50;;
34102;SDS011;20381;54.498;18.206;2023-09-19T14:18:10;3.90;;;0.90;;
34102;SDS011;20381;54.498;18.206;2023-09-19T14:20:39;0.80;;;0.50;;
34102;SDS011;20381;54.498;18.206;2023-09-19T14:23:09;0.80;;;0.50;;
34102;SDS011;20381;54.498;18.206;2023-09-19T14:25:38;2.30;;;1.00;;
34102;SDS011;20381;54.498;18.206;2023-09-19T14:28:06;1.90;;;0.50;;
34102;SDS011;20381;54.498;18.206;2023-09-19T14:30:37;1.60;;;0.80;;
34102;SDS011;20381;54.498;18.206;2023-09-19T14:33:06;3.40;;;1.60;;
34102;SDS011;20381;54.498;18.206;2023-09-19T14:35:36;2.70;;;0.50;;
34102;SDS011;20381;54.498;18.206;2023-09-19T14:38:06;5.70;;;0.70;;
34102;SDS011;20381;54.498;18.206;2023-09-19T14:40:35;0.90;;;0.50;;
34102;SDS011;20381;54.498;18.206;2023-09-19T14:43:05;1.40;;;0.70;;
34102;SDS011;20381;54.498;18.206;2023-09-19T14:45:36;1.10;;;0.40;;
34102;SDS011;20381;54.498;18.206;2023-09-19T14:48:06;4.00;;;1.30;;
34102;SDS011;20381;54.498;18.206;2023-09-19T14:50:37;6.50;;;1.20;;
34102;SDS011;20381;54.498;18.206;2023-09-19T14:53:06;1.20;;;0.50;;
34102;SDS011;20381;54.498;18.206;2023-09-19T14:55:38;2.80;;;0.30;;
34102;SDS011;20381;54.498;18.206;2023-09-19T14:58:10;1.50;;;0.80;;
34102;SDS011;20381;54.498;18.206;2023-09-19T15:00:40;1.50;;;0.50;;
34102;SDS011;20381;54.498;18.206;2023-09-19T15:03:08;1.10;;;0.50;;
34102;SDS011;20381;54.498;18.206;2023-09-19T15:05:37;1.10;;;0.70;;
34102;SDS011;20381;54.498;18.206;2023-09-19T15:08:08;1.50;;;0.70;;
34102;SDS011;20381;54.498;18.206;2023-09-19T15:10:36;3.30;;;0.80;;
34102;SDS011;20381;54.498;18.206;2023-09-19T15:13:05;1.10;;;0.40;;
34102;SDS011;20381;54.498;18.206;2023-09-19T15:15:33;2.60;;;0.60;;
34102;SDS011;20381;54.498;18.206;2023-09-19T15:18:02;1.10;;;0.50;;
34102;SDS011;20381;54.498;18.206;2023-09-19T15:20:31;0.70;;;0.40;;
34102;SDS011;20381;54.498;18.206;2023-09-19T15:23:00;5.30;;;0.60;;
34102;SDS011;20381;54.498;18.206;2023-09-19T15:25:29;2.90;;;1.20;;
34102;SDS011;20381;54.498;18.206;2023-09-19T15:27:58;2.50;;;0.60;;
34102;SDS011;20381;54.498;18.206;2023-09-19T15:30:37;3.40;;;0.60;;
34102;SDS011;20381;54.498;18.206;2023-09-19T15:33:08;1.90;;;0.70;;
34102;SDS011;20381;54.498;18.206;2023-09-19T15:35:38;1.60;;;0.50;;
34102;SDS011;20381;54.498;18.206;2023-09-19T15:38:06;3.70;;;0.60;;
34102;SDS011;20381;54.498;18.206;2023-09-19T15:40:35;3.70;;;0.70;;
34102;SDS011;20381;54.498;18.206;2023-09-19T15:43:07;3.20;;;0.60;;
34102;SDS011;20381;54.498;18.206;2023-09-19T15:45:39;6.60;;;0.90;;
34102;SDS011;20381;54.498;18.206;2023-09-19T15:48:33;2.50;;;0.70;;